sensor_id;sensor_type;location;lat;lon;timestamp;temperature;humidity
32877;DHT22;19226;51.600;8.034;2022-12-29T00:02:16;11.00;99.90
32877;DHT22;19226;51.600;8.034;2022-12-29T00:04:42;11.00;99.90
32877;DHT22;19226;51.600;8.034;2022-12-29T00:07:08;11.00;99.90
32877;DHT22;19226;51.600;8.034;2022-12-29T00:09:35;11.00;99.90
32877;DHT22;19226;51.600;8.034;2022-12-29T00:12:03;11.10;99.90
32877;DHT22;19226;51.600;8.034;2022-12-29T00:14:31;11.10;99.90
32877;DHT22;19226;51.600;8.034;2022-12-29T00:17:15;11.10;99.90
32877;DHT22;19226;51.600;8.034;2022-12-29T00:19:42;11.20;99.90
32877;DHT22;19226;51.600;8.034;2022-12-29T00:22:27;11.10;99.90
32877;DHT22;19226;51.600;8.034;2022-12-29T00:25:19;11.20;99.90
32877;DHT22;19226;51.600;8.034;2022-12-29T00:28:07;11.20;99.90
32877;DHT22;19226;51.600;8.034;2022-12-29T00:30:53;11.20;99.90
32877;DHT22;19226;51.600;8.034;2022-12-29T00:33:41;11.20;99.90
32877;DHT22;19226;51.600;8.034;2022-12-29T00:36:52;11.20;99.90
32877;DHT22;19226;51.600;8.034;2022-12-29T00:39:18;11.20;99.90
32877;DHT22;19226;51.600;8.034;2022-12-29T00:42:28;11.20;99.90
32877;DHT22;19226;51.600;8.034;2022-12-29T00:45:31;11.30;99.90
32877;DHT22;19226;51.600;8.034;2022-12-29T00:51:05;11.30;99.90
32877;DHT22;19226;51.600;8.034;2022-12-29T00:56:16;11.40;99.90
32877;DHT22;19226;51.600;8.034;2022-12-29T00:58:42;11.40;99.90
32877;DHT22;19226;51.600;8.034;2022-12-29T01:01:08;11.40;99.90
32877;DHT22;19226;51.600;8.034;2022-12-29T01:03:36;11.50;99.90
32877;DHT22;19226;51.600;8.034;2022-12-29T01:06:06;11.50;99.90
32877;DHT22;19226;51.600;8.034;2022-12-29T01:08:35;11.50;99.90
32877;DHT22;19226;51.600;8.034;2022-12-29T01:11:05;11.50;99.90
32877;DHT22;19226;51.600;8.034;2022-12-29T01:13:39;11.60;99.90
32877;DHT22;19226;51.600;8.034;2022-12-29T01:16:07;11.60;99.90
32877;DHT22;19226;51.600;8.034;2022-12-29T01:18:38;11.60;99.90
32877;DHT22;19226;51.600;8.034;2022-12-29T01:21:05;11.60;99.90
32877;DHT22;19226;51.600;8.034;2022-12-29T01:23:32;11.60;99.90
32877;DHT22;19226;51.600;8.034;2022-12-29T01:26:07;11.70;99.90
32877;DHT22;19226;51.600;8.034;2022-12-29T01:28:37;11.60;99.90
32877;DHT22;19226;51.600;8.034;2022-12-29T01:31:09;11.70;99.90
32877;DHT22;19226;51.600;8.034;2022-12-29T01:33:36;11.70;99.90
32877;DHT22;19226;51.600;8.034;2022-12-29T01:36:04;11.60;99.90
32877;DHT22;19226;51.600;8.034;2022-12-29T01:38:31;11.70;99.90
32877;DHT22;19226;51.600;8.034;2022-12-29T01:40:57;11.70;99.90
32877;DHT22;19226;51.600;8.034;2022-12-29T01:46:34;11.70;99.90
32877;DHT22;19226;51.600;8.034;2022-12-29T01:51:29;11.70;99.90
32877;DHT22;19226;51.600;8.034;2022-12-29T01:53:57;11.70;99.90
32877;DHT22;19226;51.600;8.034;2022-12-29T01:56:24;11.70;99.90
32877;DHT22;19226;51.600;8.034;2022-12-29T01:58:53;11.70;99.90
32877;DHT22;19226;51.600;8.034;2022-12-29T02:01:20;11.70;99.90
32877;DHT22;19226;51.600;8.034;2022-12-29T02:03:50;11.70;99.90
32877;DHT22;19226;51.600;8.034;2022-12-29T02:06:30;11.80;99.90
32877;DHT22;19226;51.600;8.034;2022-12-29T02:08:59;11.80;99.90
32877;DHT22;19226;51.600;8.034;2022-12-29T02:11:25;11.80;99.90
32877;DHT22;19226;51.600;8.034;2022-12-29T02:13:54;11.80;99.90
32877;DHT22;19226;51.600;8.034;2022-12-29T02:18:58;11.80;99.90
32877;DHT22;19226;51.600;8.034;2022-12-29T02:26:49;11.70;99.90
32877;DHT22;19226;51.600;8.034;2022-12-29T02:29:29;11.70;99.90
32877;DHT22;19226;51.600;8.034;2022-12-29T02:32:12;11.70;99.90
32877;DHT22;19226;51.600;8.034;2022-12-29T02:39:59;11.70;99.90
32877;DHT22;19226;51.600;8.034;2022-12-29T02:45:22;11.80;99.90
32877;DHT22;19226;51.600;8.034;2022-12-29T02:47:54;11.80;99.90
32877;DHT22;19226;51.600;8.034;2022-12-29T02:52:51;11.90;99.90
32877;DHT22;19226;51.600;8.034;2022-12-29T02:55:19;11.90;99.90
32877;DHT22;19226;51.600;8.034;2022-12-29T02:57:46;11.80;99.90
32877;DHT22;19226;51.600;8.034;2022-12-29T03:00:15;11.80;99.90
32877;DHT22;19226;51.600;8.034;2022-12-29T03:05:30;11.90;99.90
32877;DHT22;19226;51.600;8.034;2022-12-29T03:08:06;11.90;99.90
32877;DHT22;19226;51.600;8.034;2022-12-29T03:13:19;11.80;99.90
32877;DHT22;19226;51.600;8.034;2022-12-29T03:16:20;11.90;99.90
32877;DHT22;19226;51.600;8.034;2022-12-29T03:24:19;11.90;99.90
32877;DHT22;19226;51.600;8.034;2022-12-29T03:26:50;11.90;99.90
32877;DHT22;19226;51.600;8.034;2022-12-29T03:29:18;11.90;99.90
32877;DHT22;19226;51.600;8.034;2022-12-29T03:31:47;11.90;99.90
32877;DHT22;19226;51.600;8.034;2022-12-29T03:34:13;11.90;99.90
32877;DHT22;19226;51.600;8.034;2022-12-29T03:36:46;11.90;99.90
32877;DHT22;19226;51.600;8.034;2022-12-29T03:39:13;11.90;99.90
32877;DHT22;19226;51.600;8.034;2022-12-29T03:41:41;11.90;99.90
32877;DHT22;19226;51.600;8.034;2022-12-29T03:44:08;12.00;99.90
32877;DHT22;19226;51.600;8.034;2022-12-29T03:46:34;12.00;99.90
32877;DHT22;19226;51.600;8.034;2022-12-29T03:49:01;12.00;99.90
32877;DHT22;19226;51.600;8.034;2022-12-29T03:51:27;12.10;99.90
32877;DHT22;19226;51.600;8.034;2022-12-29T03:53:54;12.00;99.90
32877;DHT22;19226;51.600;8.034;2022-12-29T03:56:20;12.00;99.90
32877;DHT22;19226;51.600;8.034;2022-12-29T03:58:48;12.00;99.90
32877;DHT22;19226;51.600;8.034;2022-12-29T04:01:19;12.00;99.90
32877;DHT22;19226;51.600;8.034;2022-12-29T04:03:48;12.00;99.90
32877;DHT22;19226;51.600;8.034;2022-12-29T04:09:04;12.00;99.90
32877;DHT22;19226;51.600;8.034;2022-12-29T04:14:40;12.00;99.90
32877;DHT22;19226;51.600;8.034;2022-12-29T04:17:08;12.00;99.90
32877;DHT22;19226;51.600;8.034;2022-12-29T04:19:34;12.00;99.90
32877;DHT22;19226;51.600;8.034;2022-12-29T04:24:47;12.00;99.90
32877;DHT22;19226;51.600;8.034;2022-12-29T04:27:13;11.90;99.90
32877;DHT22;19226;51.600;8.034;2022-12-29T04:30:13;11.90;99.90
32877;DHT22;19226;51.600;8.034;2022-12-29T04:32:48;12.00;99.90
32877;DHT22;19226;51.600;8.034;2022-12-29T04:38:04;12.00;99.90
32877;DHT22;19226;51.600;8.034;2022-12-29T04:43:17;12.00;99.90
32877;DHT22;19226;51.600;8.034;2022-12-29T04:46:07;11.90;99.90
32877;DHT22;19226;51.600;8.034;2022-12-29T04:48:56;12.00;99.90
32877;DHT22;19226;51.600;8.034;2022-12-29T04:51:30;11.90;99.90
32877;DHT22;19226;51.600;8.034;2022-12-29T04:53:56;11.90;99.90
32877;DHT22;19226;51.600;8.034;2022-12-29T04:56:24;11.80;99.90
32877;DHT22;19226;51.600;8.034;2022-12-29T04:58:50;11.90;99.90
32877;DHT22;19226;51.600;8.034;2022-12-29T05:01:16;11.80;99.90
32877;DHT22;19226;51.600;8.034;2022-12-29T05:03:43;11.90;99.90
32877;DHT22;19226;51.600;8.034;2022-12-29T05:06:11;11.90;99.90
32877;DHT22;19226;51.600;8.034;2022-12-29T05:08:37;11.80;99.90
32877;DHT22;19226;51.600;8.034;2022-12-29T05:11:05;11.80;99.90
32877;DHT22;19226;51.600;8.034;2022-12-29T05:13:31;11.80;99.90
32877;DHT22;19226;51.600;8.034;2022-12-29T05:15:57;11.80;99.90
32877;DHT22;19226;51.600;8.034;2022-12-29T05:18:23;11.80;99.90
32877;DHT22;19226;51.600;8.034;2022-12-29T05:20:50;11.90;99.90
32877;DHT22;19226;51.600;8.034;2022-12-29T05:23:17;11.90;99.90
32877;DHT22;19226;51.600;8.034;2022-12-29T05:25:48;11.80;99.90
32877;DHT22;19226;51.600;8.034;2022-12-29T05:28:21;11.90;99.90
32877;DHT22;19226;51.600;8.034;2022-12-29T05:31:10;11.90;99.90
32877;DHT22;19226;51.600;8.034;2022-12-29T05:36:22;12.00;99.90
32877;DHT22;19226;51.600;8.034;2022-12-29T05:38:56;12.00;99.90
32877;DHT22;19226;51.600;8.034;2022-12-29T05:41:22;12.00;99.90
32877;DHT22;19226;51.600;8.034;2022-12-29T05:44:23;12.10;99.90
32877;DHT22;19226;51.600;8.034;2022-12-29T05:47:11;12.10;99.90
32877;DHT22;19226;51.600;8.034;2022-12-29T05:50:01;12.20;99.90
32877;DHT22;19226;51.600;8.034;2022-12-29T05:52:50;12.20;99.90
32877;DHT22;19226;51.600;8.034;2022-12-29T05:55:18;12.20;99.90
32877;DHT22;19226;51.600;8.034;2022-12-29T05:57:52;12.30;99.90
32877;DHT22;19226;51.600;8.034;2022-12-29T06:00:19;12.30;99.90
32877;DHT22;19226;51.600;8.034;2022-12-29T06:02:46;12.20;99.90
32877;DHT22;19226;51.600;8.034;2022-12-29T06:05:14;12.30;99.90
32877;DHT22;19226;51.600;8.034;2022-12-29T06:07:41;12.40;99.90
32877;DHT22;19226;51.600;8.034;2022-12-29T06:10:10;12.40;99.90
32877;DHT22;19226;51.600;8.034;2022-12-29T06:12:49;12.40;99.90
32877;DHT22;19226;51.600;8.034;2022-12-29T06:15:16;12.40;99.90
32877;DHT22;19226;51.600;8.034;2022-12-29T06:17:43;12.40;99.90
32877;DHT22;19226;51.600;8.034;2022-12-29T06:22:55;12.40;99.90
32877;DHT22;19226;51.600;8.034;2022-12-29T06:25:23;12.40;99.90
32877;DHT22;19226;51.600;8.034;2022-12-29T06:27:49;12.40;99.90
32877;DHT22;19226;51.600;8.034;2022-12-29T06:30:15;12.40;99.90
32877;DHT22;19226;51.600;8.034;2022-12-29T06:32:42;12.40;99.90
32877;DHT22;19226;51.600;8.034;2022-12-29T06:35:13;12.40;99.90
32877;DHT22;19226;51.600;8.034;2022-12-29T06:37:44;12.40;99.90
32877;DHT22;19226;51.600;8.034;2022-12-29T06:40:10;12.40;99.90
32877;DHT22;19226;51.600;8.034;2022-12-29T06:42:55;12.40;99.90
32877;DHT22;19226;51.600;8.034;2022-12-29T06:45:51;12.40;99.90
32877;DHT22;19226;51.600;8.034;2022-12-29T06:48:17;12.40;99.90
32877;DHT22;19226;51.600;8.034;2022-12-29T06:50:43;12.30;99.90
32877;DHT22;19226;51.600;8.034;2022-12-29T06:53:09;12.30;99.90
32877;DHT22;19226;51.600;8.034;2022-12-29T06:55:36;12.30;99.90
32877;DHT22;19226;51.600;8.034;2022-12-29T06:58:02;12.40;99.90
32877;DHT22;19226;51.600;8.034;2022-12-29T07:00:30;12.40;99.90
32877;DHT22;19226;51.600;8.034;2022-12-29T07:02:56;12.40;99.90
32877;DHT22;19226;51.600;8.034;2022-12-29T07:05:27;12.40;99.90
32877;DHT22;19226;51.600;8.034;2022-12-29T07:07:53;12.40;99.90
32877;DHT22;19226;51.600;8.034;2022-12-29T07:10:19;12.40;99.90
32877;DHT22;19226;51.600;8.034;2022-12-29T07:12:51;12.40;99.90
32877;DHT22;19226;51.600;8.034;2022-12-29T07:18:03;12.40;99.90
32877;DHT22;19226;51.600;8.034;2022-12-29T07:20:32;12.40;99.90
32877;DHT22;19226;51.600;8.034;2022-12-29T07:22:58;12.40;99.90
32877;DHT22;19226;51.600;8.034;2022-12-29T07:25:25;12.40;99.90
32877;DHT22;19226;51.600;8.034;2022-12-29T07:27:51;12.40;99.90
32877;DHT22;19226;51.600;8.034;2022-12-29T07:33:06;12.40;99.90
32877;DHT22;19226;51.600;8.034;2022-12-29T07:38:03;12.40;99.90
32877;DHT22;19226;51.600;8.034;2022-12-29T07:40:30;12.40;99.90
32877;DHT22;19226;51.600;8.034;2022-12-29T07:42:57;12.30;99.90
32877;DHT22;19226;51.600;8.034;2022-12-29T07:45:34;12.30;99.90
32877;DHT22;19226;51.600;8.034;2022-12-29T07:48:07;12.30;99.90
32877;DHT22;19226;51.600;8.034;2022-12-29T07:50:40;12.20;99.90
32877;DHT22;19226;51.600;8.034;2022-12-29T07:53:08;12.20;99.90
32877;DHT22;19226;51.600;8.034;2022-12-29T07:55:34;12.10;99.90
32877;DHT22;19226;51.600;8.034;2022-12-29T07:58:00;12.10;99.90
32877;DHT22;19226;51.600;8.034;2022-12-29T08:00:26;12.00;99.90
32877;DHT22;19226;51.600;8.034;2022-12-29T08:02:55;12.00;99.90
32877;DHT22;19226;51.600;8.034;2022-12-29T08:05:21;12.00;99.90
32877;DHT22;19226;51.600;8.034;2022-12-29T08:13:48;11.90;99.90
32877;DHT22;19226;51.600;8.034;2022-12-29T08:16:18;12.00;99.90
32877;DHT22;19226;51.600;8.034;2022-12-29T08:18:43;12.00;99.90
32877;DHT22;19226;51.600;8.034;2022-12-29T08:21:11;11.90;99.90
32877;DHT22;19226;51.600;8.034;2022-12-29T08:23:38;11.90;99.90
32877;DHT22;19226;51.600;8.034;2022-12-29T08:26:06;11.90;99.90
32877;DHT22;19226;51.600;8.034;2022-12-29T08:28:32;11.80;99.90
32877;DHT22;19226;51.600;8.034;2022-12-29T08:33:43;11.80;99.90
32877;DHT22;19226;51.600;8.034;2022-12-29T08:38:53;11.70;99.90
32877;DHT22;19226;51.600;8.034;2022-12-29T08:44:08;11.70;99.90
32877;DHT22;19226;51.600;8.034;2022-12-29T08:46:37;11.60;99.90
32877;DHT22;19226;51.600;8.034;2022-12-29T08:49:08;11.60;99.90
32877;DHT22;19226;51.600;8.034;2022-12-29T08:51:35;11.60;99.90
32877;DHT22;19226;51.600;8.034;2022-12-29T08:54:00;11.60;99.90
32877;DHT22;19226;51.600;8.034;2022-12-29T08:56:28;11.70;99.90
32877;DHT22;19226;51.600;8.034;2022-12-29T08:58:57;11.70;99.90
32877;DHT22;19226;51.600;8.034;2022-12-29T09:01:26;11.70;99.90
32877;DHT22;19226;51.600;8.034;2022-12-29T09:03:52;11.70;99.90
32877;DHT22;19226;51.600;8.034;2022-12-29T09:09:04;11.70;99.90
32877;DHT22;19226;51.600;8.034;2022-12-29T09:11:30;11.70;99.90
32877;DHT22;19226;51.600;8.034;2022-12-29T09:13:58;11.80;99.90
32877;DHT22;19226;51.600;8.034;2022-12-29T09:16:25;11.80;99.90
32877;DHT22;19226;51.600;8.034;2022-12-29T09:18:52;11.80;99.90
32877;DHT22;19226;51.600;8.034;2022-12-29T09:21:24;11.80;99.90
32877;DHT22;19226;51.600;8.034;2022-12-29T09:23:50;11.80;99.90
32877;DHT22;19226;51.600;8.034;2022-12-29T09:26:17;11.90;99.90
32877;DHT22;19226;51.600;8.034;2022-12-29T09:28:43;11.90;99.90
32877;DHT22;19226;51.600;8.034;2022-12-29T09:31:10;11.90;99.90
32877;DHT22;19226;51.600;8.034;2022-12-29T09:33:36;11.90;99.90
32877;DHT22;19226;51.600;8.034;2022-12-29T09:38:48;12.00;99.90
32877;DHT22;19226;51.600;8.034;2022-12-29T09:41:20;11.90;99.90
32877;DHT22;19226;51.600;8.034;2022-12-29T09:44:03;11.80;99.90
32877;DHT22;19226;51.600;8.034;2022-12-29T09:46:37;11.70;99.90
32877;DHT22;19226;51.600;8.034;2022-12-29T09:51:30;11.50;99.90
32877;DHT22;19226;51.600;8.034;2022-12-29T09:54:20;11.40;99.90
32877;DHT22;19226;51.600;8.034;2022-12-29T09:56:43;11.40;99.90
32877;DHT22;19226;51.600;8.034;2022-12-29T09:59:27;11.30;99.90
32877;DHT22;19226;51.600;8.034;2022-12-29T10:02:04;11.20;99.90
32877;DHT22;19226;51.600;8.034;2022-12-29T10:04:36;11.20;99.90
32877;DHT22;19226;51.600;8.034;2022-12-29T10:07:06;11.10;99.90
32877;DHT22;19226;51.600;8.034;2022-12-29T10:15:01;11.20;99.90
32877;DHT22;19226;51.600;8.034;2022-12-29T10:25:12;11.50;99.90
32877;DHT22;19226;51.600;8.034;2022-12-29T10:27:40;11.60;99.90
32877;DHT22;19226;51.600;8.034;2022-12-29T10:30:10;11.60;99.90
32877;DHT22;19226;51.600;8.034;2022-12-29T10:32:48;11.70;99.90
32877;DHT22;19226;51.600;8.034;2022-12-29T10:35:18;11.80;99.90
32877;DHT22;19226;51.600;8.034;2022-12-29T10:37:58;11.90;99.90
32877;DHT22;19226;51.600;8.034;2022-12-29T10:40:27;12.10;99.90
32877;DHT22;19226;51.600;8.034;2022-12-29T10:42:55;12.10;99.90
32877;DHT22;19226;51.600;8.034;2022-12-29T10:45:22;12.20;99.90
32877;DHT22;19226;51.600;8.034;2022-12-29T10:48:00;12.20;99.90
32877;DHT22;19226;51.600;8.034;2022-12-29T10:50:27;12.20;99.90
32877;DHT22;19226;51.600;8.034;2022-12-29T10:52:58;12.30;99.90
32877;DHT22;19226;51.600;8.034;2022-12-29T10:55:32;12.40;99.90
32877;DHT22;19226;51.600;8.034;2022-12-29T10:58:01;12.30;99.90
32877;DHT22;19226;51.600;8.034;2022-12-29T11:00:32;12.40;99.90
32877;DHT22;19226;51.600;8.034;2022-12-29T11:05:40;12.40;99.90
32877;DHT22;19226;51.600;8.034;2022-12-29T11:08:09;12.40;99.90
32877;DHT22;19226;51.600;8.034;2022-12-29T11:10:40;12.30;99.90
32877;DHT22;19226;51.600;8.034;2022-12-29T11:13:18;12.40;99.90
32877;DHT22;19226;51.600;8.034;2022-12-29T11:15:46;12.40;99.90
32877;DHT22;19226;51.600;8.034;2022-12-29T11:18:22;12.40;99.90
32877;DHT22;19226;51.600;8.034;2022-12-29T11:20:51;12.30;99.90
32877;DHT22;19226;51.600;8.034;2022-12-29T11:23:25;12.40;99.90
32877;DHT22;19226;51.600;8.034;2022-12-29T11:26:11;12.40;99.90
32877;DHT22;19226;51.600;8.034;2022-12-29T11:28:39;12.30;99.90
32877;DHT22;19226;51.600;8.034;2022-12-29T11:31:06;12.30;99.90
32877;DHT22;19226;51.600;8.034;2022-12-29T11:33:33;12.30;99.90
32877;DHT22;19226;51.600;8.034;2022-12-29T11:38:38;12.30;99.90
32877;DHT22;19226;51.600;8.034;2022-12-29T11:41:05;12.30;99.90
32877;DHT22;19226;51.600;8.034;2022-12-29T11:43:34;12.30;99.90
32877;DHT22;19226;51.600;8.034;2022-12-29T11:46:04;12.20;99.90
32877;DHT22;19226;51.600;8.034;2022-12-29T11:48:40;12.30;99.90
32877;DHT22;19226;51.600;8.034;2022-12-29T11:51:06;12.20;99.90
32877;DHT22;19226;51.600;8.034;2022-12-29T11:53:42;12.20;99.90
32877;DHT22;19226;51.600;8.034;2022-12-29T11:56:10;12.20;99.90
32877;DHT22;19226;51.600;8.034;2022-12-29T11:58:38;12.20;99.90
32877;DHT22;19226;51.600;8.034;2022-12-29T12:01:13;12.10;99.90
32877;DHT22;19226;51.600;8.034;2022-12-29T12:03:44;12.20;99.90
32877;DHT22;19226;51.600;8.034;2022-12-29T12:06:12;12.20;99.90
32877;DHT22;19226;51.600;8.034;2022-12-29T12:08:56;12.10;99.90
32877;DHT22;19226;51.600;8.034;2022-12-29T12:11:25;12.10;99.90
32877;DHT22;19226;51.600;8.034;2022-12-29T12:13:56;12.10;99.90
32877;DHT22;19226;51.600;8.034;2022-12-29T12:16:46;12.10;99.90
32877;DHT22;19226;51.600;8.034;2022-12-29T12:19:18;12.10;99.90
32877;DHT22;19226;51.600;8.034;2022-12-29T12:21:46;12.10;99.90
32877;DHT22;19226;51.600;8.034;2022-12-29T12:27:09;12.10;99.90
32877;DHT22;19226;51.600;8.034;2022-12-29T12:30:00;12.00;99.90
32877;DHT22;19226;51.600;8.034;2022-12-29T12:34:59;12.10;99.90
32877;DHT22;19226;51.600;8.034;2022-12-29T12:37:31;12.10;99.90
32877;DHT22;19226;51.600;8.034;2022-12-29T12:53:29;12.00;99.90
32877;DHT22;19226;51.600;8.034;2022-12-29T13:12:14;12.00;99.90
32877;DHT22;19226;51.600;8.034;2022-12-29T13:22:25;11.90;99.90
32877;DHT22;19226;51.600;8.034;2022-12-29T13:27:32;11.90;99.90
32877;DHT22;19226;51.600;8.034;2022-12-29T13:30:05;11.90;99.90
32877;DHT22;19226;51.600;8.034;2022-12-29T13:37:56;11.80;99.90
32877;DHT22;19226;51.600;8.034;2022-12-29T13:40:28;11.80;99.90
32877;DHT22;19226;51.600;8.034;2022-12-29T13:43:00;11.70;99.90
32877;DHT22;19226;51.600;8.034;2022-12-29T13:45:28;11.70;99.90
32877;DHT22;19226;51.600;8.034;2022-12-29T13:50:57;11.70;99.90
32877;DHT22;19226;51.600;8.034;2022-12-29T13:56:56;11.70;99.90
32877;DHT22;19226;51.600;8.034;2022-12-29T14:01:57;11.70;99.90
32877;DHT22;19226;51.600;8.034;2022-12-29T14:04:27;11.70;99.90
32877;DHT22;19226;51.600;8.034;2022-12-29T14:07:00;11.60;99.90
32877;DHT22;19226;51.600;8.034;2022-12-29T14:09:41;11.60;99.90
32877;DHT22;19226;51.600;8.034;2022-12-29T14:15:06;11.50;99.90
32877;DHT22;19226;51.600;8.034;2022-12-29T14:17:45;11.60;99.90
32877;DHT22;19226;51.600;8.034;2022-12-29T14:20:30;11.60;99.90
32877;DHT22;19226;51.600;8.034;2022-12-29T14:22:58;11.50;99.90
32877;DHT22;19226;51.600;8.034;2022-12-29T14:36:55;11.50;99.90
32877;DHT22;19226;51.600;8.034;2022-12-29T14:44:55;11.40;99.90
32877;DHT22;19226;51.600;8.034;2022-12-29T14:47:32;11.40;99.90
32877;DHT22;19226;51.600;8.034;2022-12-29T14:52:30;11.40;99.90
32877;DHT22;19226;51.600;8.034;2022-12-29T14:54:57;11.40;99.90
32877;DHT22;19226;51.600;8.034;2022-12-29T15:00:17;11.40;99.90
32877;DHT22;19226;51.600;8.034;2022-12-29T15:02:45;11.40;99.90
32877;DHT22;19226;51.600;8.034;2022-12-29T15:05:26;11.40;99.90
32877;DHT22;19226;51.600;8.034;2022-12-29T15:07:53;11.30;99.90
32877;DHT22;19226;51.600;8.034;2022-12-29T15:13:09;11.30;99.90
32877;DHT22;19226;51.600;8.034;2022-12-29T15:16:00;11.30;99.90
32877;DHT22;19226;51.600;8.034;2022-12-29T15:18:28;11.40;99.90
32877;DHT22;19226;51.600;8.034;2022-12-29T15:20:55;11.30;99.90
32877;DHT22;19226;51.600;8.034;2022-12-29T15:23:22;11.30;99.90
32877;DHT22;19226;51.600;8.034;2022-12-29T15:28:22;11.30;99.90
32877;DHT22;19226;51.600;8.034;2022-12-29T15:30:55;11.30;99.90
32877;DHT22;19226;51.600;8.034;2022-12-29T15:33:30;11.30;99.90
32877;DHT22;19226;51.600;8.034;2022-12-29T15:35:56;11.30;99.90
32877;DHT22;19226;51.600;8.034;2022-12-29T15:41:47;11.30;99.90
32877;DHT22;19226;51.600;8.034;2022-12-29T15:44:38;11.30;99.90
32877;DHT22;19226;51.600;8.034;2022-12-29T15:47:11;11.30;99.90
32877;DHT22;19226;51.600;8.034;2022-12-29T15:49:41;11.30;99.90
32877;DHT22;19226;51.600;8.034;2022-12-29T15:52:08;11.30;99.90
32877;DHT22;19226;51.600;8.034;2022-12-29T15:57:42;11.30;99.90
32877;DHT22;19226;51.600;8.034;2022-12-29T16:00:21;11.20;99.90
32877;DHT22;19226;51.600;8.034;2022-12-29T16:02:48;11.20;99.90
32877;DHT22;19226;51.600;8.034;2022-12-29T16:05:18;11.20;99.90
32877;DHT22;19226;51.600;8.034;2022-12-29T16:07:51;11.20;99.90
32877;DHT22;19226;51.600;8.034;2022-12-29T16:10:22;11.20;99.90
32877;DHT22;19226;51.600;8.034;2022-12-29T16:12:50;11.20;99.90
32877;DHT22;19226;51.600;8.034;2022-12-29T16:15:17;11.20;99.90
32877;DHT22;19226;51.600;8.034;2022-12-29T16:17:46;11.10;99.90
32877;DHT22;19226;51.600;8.034;2022-12-29T16:22:58;11.10;99.90
32877;DHT22;19226;51.600;8.034;2022-12-29T16:25:38;11.10;99.90
32877;DHT22;19226;51.600;8.034;2022-12-29T16:28:40;11.10;99.90
32877;DHT22;19226;51.600;8.034;2022-12-29T16:31:13;11.10;99.90
32877;DHT22;19226;51.600;8.034;2022-12-29T16:33:48;11.10;99.90
32877;DHT22;19226;51.600;8.034;2022-12-29T16:36:30;11.10;99.90
32877;DHT22;19226;51.600;8.034;2022-12-29T16:39:05;11.10;99.90
32877;DHT22;19226;51.600;8.034;2022-12-29T16:41:36;11.10;99.90
32877;DHT22;19226;51.600;8.034;2022-12-29T16:44:11;11.10;99.90
32877;DHT22;19226;51.600;8.034;2022-12-29T16:46:43;11.10;99.90
32877;DHT22;19226;51.600;8.034;2022-12-29T16:49:14;11.10;99.90
32877;DHT22;19226;51.600;8.034;2022-12-29T16:51:47;11.00;99.90
32877;DHT22;19226;51.600;8.034;2022-12-29T16:54:20;11.00;99.90
32877;DHT22;19226;51.600;8.034;2022-12-29T16:56:47;11.00;99.90
32877;DHT22;19226;51.600;8.034;2022-12-29T17:01:55;11.00;99.90
32877;DHT22;19226;51.600;8.034;2022-12-29T17:07:26;11.00;99.90
32877;DHT22;19226;51.600;8.034;2022-12-29T17:09:52;10.90;99.90
32877;DHT22;19226;51.600;8.034;2022-12-29T17:12:26;10.90;99.90
32877;DHT22;19226;51.600;8.034;2022-12-29T17:14:54;10.90;99.90
32877;DHT22;19226;51.600;8.034;2022-12-29T17:17:36;10.80;99.90
32877;DHT22;19226;51.600;8.034;2022-12-29T17:20:05;10.80;99.90
32877;DHT22;19226;51.600;8.034;2022-12-29T17:28:00;10.70;99.90
32877;DHT22;19226;51.600;8.034;2022-12-29T17:30:27;10.70;99.90
32877;DHT22;19226;51.600;8.034;2022-12-29T17:35:57;10.70;99.90
32877;DHT22;19226;51.600;8.034;2022-12-29T17:38:28;10.70;99.90
32877;DHT22;19226;51.600;8.034;2022-12-29T17:40:54;10.70;99.90
32877;DHT22;19226;51.600;8.034;2022-12-29T17:43:20;10.70;99.90
32877;DHT22;19226;51.600;8.034;2022-12-29T17:45:52;10.70;99.90
32877;DHT22;19226;51.600;8.034;2022-12-29T17:48:19;10.70;99.90
32877;DHT22;19226;51.600;8.034;2022-12-29T17:50:46;10.70;99.90
32877;DHT22;19226;51.600;8.034;2022-12-29T17:53:23;10.70;99.90
32877;DHT22;19226;51.600;8.034;2022-12-29T17:55:51;10.70;99.90
32877;DHT22;19226;51.600;8.034;2022-12-29T17:58:18;10.70;99.90
32877;DHT22;19226;51.600;8.034;2022-12-29T18:03:33;10.70;99.90
32877;DHT22;19226;51.600;8.034;2022-12-29T18:06:03;10.70;99.90
32877;DHT22;19226;51.600;8.034;2022-12-29T18:08:31;10.60;99.90
32877;DHT22;19226;51.600;8.034;2022-12-29T18:10:58;10.70;99.90
32877;DHT22;19226;51.600;8.034;2022-12-29T18:13:26;10.70;99.90
32877;DHT22;19226;51.600;8.034;2022-12-29T18:18:40;10.70;99.90
32877;DHT22;19226;51.600;8.034;2022-12-29T18:21:08;10.70;99.90
32877;DHT22;19226;51.600;8.034;2022-12-29T18:23:38;10.60;99.90
32877;DHT22;19226;51.600;8.034;2022-12-29T18:26:12;10.60;99.90
32877;DHT22;19226;51.600;8.034;2022-12-29T18:28:39;10.60;99.90
32877;DHT22;19226;51.600;8.034;2022-12-29T18:33:52;10.50;99.90
32877;DHT22;19226;51.600;8.034;2022-12-29T18:36:27;10.50;99.90
32877;DHT22;19226;51.600;8.034;2022-12-29T18:38:53;10.40;99.90
32877;DHT22;19226;51.600;8.034;2022-12-29T18:41:24;10.30;99.90
32877;DHT22;19226;51.600;8.034;2022-12-29T18:43:51;10.30;99.90
32877;DHT22;19226;51.600;8.034;2022-12-29T18:46:18;10.20;99.90
32877;DHT22;19226;51.600;8.034;2022-12-29T18:48:44;10.20;99.90
32877;DHT22;19226;51.600;8.034;2022-12-29T18:51:15;10.20;99.90
32877;DHT22;19226;51.600;8.034;2022-12-29T18:53:44;10.00;99.90
32877;DHT22;19226;51.600;8.034;2022-12-29T18:56:11;9.80;99.90
32877;DHT22;19226;51.600;8.034;2022-12-29T18:58:37;9.70;99.90
32877;DHT22;19226;51.600;8.034;2022-12-29T19:01:04;9.70;99.90
32877;DHT22;19226;51.600;8.034;2022-12-29T19:03:30;9.50;99.90
32877;DHT22;19226;51.600;8.034;2022-12-29T19:05:56;9.40;99.90
32877;DHT22;19226;51.600;8.034;2022-12-29T19:08:24;9.40;99.90
32877;DHT22;19226;51.600;8.034;2022-12-29T19:10:51;9.30;99.90
32877;DHT22;19226;51.600;8.034;2022-12-29T19:13:18;9.20;99.90
32877;DHT22;19226;51.600;8.034;2022-12-29T19:15:44;9.20;99.90
32877;DHT22;19226;51.600;8.034;2022-12-29T19:18:13;9.10;99.90
32877;DHT22;19226;51.600;8.034;2022-12-29T19:20:41;9.10;99.90
32877;DHT22;19226;51.600;8.034;2022-12-29T19:23:09;9.10;99.90
32877;DHT22;19226;51.600;8.034;2022-12-29T19:25:35;9.10;99.90
32877;DHT22;19226;51.600;8.034;2022-12-29T19:28:02;9.10;99.90
32877;DHT22;19226;51.600;8.034;2022-12-29T19:30:28;9.00;99.90
32877;DHT22;19226;51.600;8.034;2022-12-29T19:32:55;9.00;99.90
32877;DHT22;19226;51.600;8.034;2022-12-29T19:35:24;8.90;99.90
32877;DHT22;19226;51.600;8.034;2022-12-29T19:37:52;8.90;99.90
32877;DHT22;19226;51.600;8.034;2022-12-29T19:40:19;8.90;99.90
32877;DHT22;19226;51.600;8.034;2022-12-29T19:42:45;8.90;99.90
32877;DHT22;19226;51.600;8.034;2022-12-29T19:45:18;8.90;99.90
32877;DHT22;19226;51.600;8.034;2022-12-29T19:47:45;8.90;99.90